createdAt,value
2022-10-05T00:00:49.320Z,4.50
2022-10-05T00:05:51.166Z,4.25
2022-10-05T00:10:52.910Z,4.78
2022-10-05T00:16:19.304Z,4.85
2022-10-05T00:21:25.381Z,4.50
2022-10-05T00:26:32.106Z,4.80
2022-10-05T00:31:36.320Z,4.00
2022-10-05T00:36:39.414Z,4.45
2022-10-05T00:42:09.132Z,4.50
2022-10-05T00:47:16.716Z,3.38
2022-10-05T00:52:30.300Z,4.07
2022-10-05T00:58:14.596Z,3.38
2022-10-05T01:03:32.350Z,2.88
2022-10-05T01:08:36.969Z,3.38
2022-10-05T01:14:09.404Z,3.17
2022-10-05T01:19:20.756Z,3.60
2022-10-05T01:24:34.590Z,3.05
2022-10-05T01:29:56.492Z,3.70
2022-10-05T01:35:07.387Z,3.17
2022-10-05T01:40:15.239Z,3.20
2022-10-05T01:45:27.853Z,3.75
2022-10-05T01:50:56.193Z,3.38
2022-10-05T01:56:27.130Z,3.75
2022-10-05T02:02:00.304Z,3.42
2022-10-05T02:07:06.928Z,2.83
2022-10-05T02:12:16.152Z,2.88
2022-10-05T02:17:23.885Z,2.70
2022-10-05T02:22:31.882Z,2.72
2022-10-05T02:27:40.948Z,2.83
2022-10-05T02:33:06.668Z,2.92
2022-10-05T02:38:33.881Z,2.83
2022-10-05T02:43:40.165Z,2.30
2022-10-05T02:49:02.651Z,3.05
2022-10-05T02:54:26.937Z,2.30
2022-10-05T02:59:36.454Z,2.20
2022-10-05T03:05:21.209Z,2.20
2022-10-05T03:10:50.069Z,1.92
2022-10-05T03:15:58.245Z,2.40
2022-10-05T03:21:15.264Z,4.15
2022-10-05T03:26:32.943Z,2.13
2022-10-05T03:31:51.525Z,2.40
2022-10-05T03:37:10.525Z,2.60
2022-10-05T03:42:18.163Z,2.70
2022-10-05T03:47:34.325Z,2.70
2022-10-05T03:52:42.850Z,2.90
2022-10-05T03:57:47.441Z,2.85
2022-10-05T04:02:59.187Z,2.75
2022-10-05T04:08:10.192Z,2.72
2022-10-05T04:13:38.482Z,4.13
2022-10-05T04:18:48.217Z,3.80
2022-10-05T04:24:06.643Z,3.33
2022-10-05T04:29:26.874Z,2.92
2022-10-05T04:34:47.537Z,3.10
2022-10-05T04:40:11.109Z,2.55
2022-10-05T04:45:34.777Z,3.20
2022-10-05T04:51:10.331Z,3.10
2022-10-05T04:56:18.141Z,3.25
2022-10-05T05:01:21.636Z,3.05
2022-10-05T05:06:52.505Z,3.38
2022-10-05T05:12:28.480Z,3.65
2022-10-05T05:17:33.206Z,3.45
2022-10-05T05:23:06.582Z,3.67
2022-10-05T05:28:13.543Z,4.32
2022-10-05T05:33:20.579Z,4.32
2022-10-05T05:38:34.690Z,3.42
2022-10-05T05:44:14.477Z,3.45
2022-10-05T05:49:35.778Z,3.67
2022-10-05T05:54:44.212Z,4.60
2022-10-05T05:59:55.970Z,4.43
2022-10-05T06:05:06.229Z,4.75
2022-10-05T06:10:31.477Z,6.00
2022-10-05T06:15:44.871Z,5.50
2022-10-05T06:20:57.209Z,4.55
2022-10-05T06:26:30.193Z,6.20
2022-10-05T06:31:44.543Z,7.05
2022-10-05T06:36:52.890Z,6.70
2022-10-05T06:41:58.056Z,5.63
2022-10-05T06:47:41.604Z,5.82
2022-10-05T06:53:15.634Z,4.95
2022-10-05T06:58:41.988Z,4.68
2022-10-05T07:03:54.455Z,4.03
2022-10-05T07:08:56.322Z,4.45
2022-10-05T07:14:33.906Z,4.13
2022-10-05T07:20:05.323Z,3.45
2022-10-05T07:25:32.365Z,4.22
2022-10-05T07:30:56.395Z,3.92
2022-10-05T07:36:49.812Z,3.80
2022-10-05T07:42:19.859Z,9.88
2022-10-05T07:47:38.009Z,3.10
2022-10-05T07:52:46.117Z,3.17
2022-10-05T07:58:04.978Z,2.55
2022-10-05T08:03:18.282Z,2.05
2022-10-05T08:08:54.050Z,2.10
2022-10-05T08:14:06.242Z,2.17
2022-10-05T08:19:17.589Z,3.20
2022-10-05T08:24:43.858Z,3.30
2022-10-05T08:30:04.385Z,3.20
2022-10-05T08:35:37.777Z,3.08
2022-10-05T08:41:07.329Z,2.55
2022-10-05T08:46:19.063Z,2.85
2022-10-05T08:51:51.201Z,3.20
2022-10-05T08:57:14.240Z,3.90
2022-10-05T09:02:18.766Z,3.50
2022-10-05T09:07:27.070Z,2.97
2022-10-05T09:12:54.699Z,2.30
2022-10-05T09:18:24.344Z,2.72
2022-10-05T09:23:44.942Z,3.40
2022-10-05T09:29:31.445Z,3.72
2022-10-05T09:35:14.408Z,3.20
2022-10-05T09:40:53.042Z,3.33
2022-10-05T09:46:28.615Z,3.25
2022-10-05T09:51:49.177Z,3.85
2022-10-05T09:57:28.461Z,3.88
2022-10-05T10:02:56.220Z,3.05
2022-10-05T10:08:17.566Z,3.80
2022-10-05T10:13:49.272Z,3.75
2022-10-05T10:19:18.485Z,3.55
2022-10-05T10:24:38.195Z,3.47
2022-10-05T10:30:09.303Z,3.47
2022-10-05T10:35:22.190Z,3.22
2022-10-05T10:40:27.039Z,3.35
2022-10-05T10:45:28.815Z,3.95
2022-10-05T10:50:42.582Z,3.50
2022-10-05T10:56:17.918Z,3.40
2022-10-05T11:01:27.339Z,3.13
2022-10-05T11:07:02.637Z,3.25
2022-10-05T11:12:33.508Z,3.40
2022-10-05T11:17:55.701Z,3.30
2022-10-05T11:23:29.701Z,3.25
2022-10-05T11:28:46.620Z,3.33
2022-10-05T11:34:23.161Z,2.92
2022-10-05T11:39:44.997Z,3.40
2022-10-05T11:45:06.450Z,3.00
2022-10-05T11:50:17.229Z,2.95
2022-10-05T11:55:44.820Z,3.10
2022-10-05T12:00:57.317Z,2.40
2022-10-05T12:06:01.626Z,2.63
2022-10-05T12:11:31.037Z,2.88
2022-10-05T12:16:37.379Z,2.42
2022-10-05T12:21:53.556Z,1.85
2022-10-05T12:27:17.086Z,1.90
2022-10-05T12:32:50.202Z,2.03
2022-10-05T12:38:28.455Z,2.50
2022-10-05T12:44:04.832Z,2.50
2022-10-05T12:49:16.404Z,2.05
2022-10-05T12:54:36.425Z,2.50
2022-10-05T12:59:50.117Z,1.90
2022-10-05T13:05:03.024Z,2.50
2022-10-05T13:10:17.150Z,2.22
2022-10-05T13:15:29.669Z,2.78
2022-10-05T13:21:05.355Z,3.03
2022-10-05T13:26:25.550Z,2.20
2022-10-05T13:31:44.813Z,2.53
2022-10-05T13:37:05.942Z,2.40
2022-10-05T13:42:21.163Z,2.10
2022-10-05T13:47:44.452Z,2.55
2022-10-05T13:53:02.605Z,2.45
2022-10-05T13:58:40.230Z,2.95
2022-10-05T14:04:02.376Z,3.45
2022-10-05T14:09:04.396Z,2.63
2022-10-05T14:14:44.493Z,2.65
2022-10-05T14:19:51.146Z,2.95
2022-10-05T14:25:14.057Z,2.30
2022-10-05T14:30:15.736Z,1.73
2022-10-05T14:35:24.066Z,1.60
2022-10-05T14:40:25.890Z,1.48
2022-10-05T14:45:33.419Z,3.08
2022-10-05T14:50:51.044Z,2.67
2022-10-05T14:56:30.184Z,2.40
2022-10-05T15:01:36.591Z,1.90
2022-10-05T15:06:42.442Z,1.70
2022-10-05T15:11:54.374Z,1.90
2022-10-05T15:17:03.373Z,1.52
2022-10-05T15:22:25.288Z,1.95
2022-10-05T15:27:44.989Z,2.17
2022-10-05T15:33:01.656Z,2.47
2022-10-05T15:38:25.761Z,2.42
2022-10-05T15:43:40.895Z,2.40
2022-10-05T15:49:12.223Z,2.88
2022-10-05T15:54:52.679Z,2.65
2022-10-05T15:59:54.282Z,3.55
2022-10-05T16:05:20.023Z,2.97
2022-10-05T16:10:24.127Z,4.40
2022-10-05T16:15:48.611Z,3.33
2022-10-05T16:21:00.010Z,4.82
2022-10-05T16:26:11.636Z,4.25
2022-10-05T16:31:37.247Z,3.70
2022-10-05T16:37:32.724Z,4.07
2022-10-05T16:43:00.814Z,4.07
2022-10-05T16:48:02.491Z,4.07
2022-10-05T16:53:38.676Z,4.15
2022-10-05T16:59:17.680Z,4.35
2022-10-05T17:04:31.956Z,3.72
2022-10-05T17:09:44.456Z,4.80
2022-10-05T17:15:25.605Z,4.72
2022-10-05T17:21:01.040Z,4.60
2022-10-05T17:26:29.232Z,4.43
2022-10-05T17:31:32.056Z,4.68
2022-10-05T17:36:39.651Z,4.30
2022-10-05T17:41:41.828Z,5.00
2022-10-05T17:46:48.474Z,4.25
2022-10-05T17:52:11.511Z,4.20
2022-10-05T17:57:16.454Z,4.25
2022-10-05T18:02:22.790Z,4.93
2022-10-05T18:07:25.031Z,4.57
2022-10-05T18:13:05.058Z,5.72
2022-10-05T18:18:36.314Z,7.50
2022-10-05T18:23:38.031Z,8.20
2022-10-05T18:29:14.090Z,8.10
2022-10-05T18:34:18.497Z,7.15
2022-10-05T18:39:41.788Z,8.43
2022-10-05T18:45:14.054Z,8.27
2022-10-05T18:50:42.156Z,7.63
2022-10-05T18:56:03.792Z,9.05
2022-10-05T19:01:21.540Z,8.00
2022-10-05T19:07:14.224Z,9.38
2022-10-05T19:12:24.752Z,5.85
2022-10-05T19:17:48.177Z,6.57
2022-10-05T19:23:13.853Z,4.82
2022-10-05T19:28:38.738Z,3.00
2022-10-05T19:33:53.241Z,2.63
2022-10-05T19:39:04.062Z,2.58
2022-10-05T19:44:34.200Z,2.58
2022-10-05T19:49:56.984Z,2.53
2022-10-05T19:55:24.975Z,2.63
2022-10-05T20:00:32.472Z,2.33
2022-10-05T20:05:34.170Z,2.85
2022-10-05T20:10:35.847Z,2.42
2022-10-05T20:15:56.064Z,2.72
2022-10-05T20:20:57.859Z,2.55
2022-10-05T20:26:17.859Z,2.65
2022-10-05T20:31:20.169Z,2.40
2022-10-05T20:36:21.917Z,2.55
2022-10-05T20:41:23.596Z,2.63
2022-10-05T20:46:25.299Z,2.45
2022-10-05T20:51:28.966Z,2.30
2022-10-05T20:56:30.878Z,2.10
2022-10-05T21:01:34.271Z,2.08
2022-10-05T21:06:36.156Z,2.33
2022-10-05T21:11:39.714Z,2.75
2022-10-05T21:16:42.973Z,2.30
2022-10-05T21:21:46.080Z,2.33
2022-10-05T21:26:47.816Z,2.58
2022-10-05T21:31:49.588Z,1.90
2022-10-05T21:36:51.380Z,2.05
2022-10-05T21:41:53.072Z,2.50
2022-10-05T21:46:55.450Z,1.88
2022-10-05T21:51:58.790Z,1.80
2022-10-05T21:57:00.784Z,2.28
2022-10-05T22:02:02.984Z,2.20
2022-10-05T22:07:18.602Z,2.45
2022-10-05T22:12:20.738Z,2.15
2022-10-05T22:17:29.047Z,1.92
2022-10-05T22:22:30.811Z,2.10
2022-10-05T22:27:33.597Z,2.60
2022-10-05T22:32:35.281Z,2.25
2022-10-05T22:37:38.251Z,1.83
2022-10-05T22:42:40.969Z,2.25
2022-10-05T22:47:43.085Z,2.13
2022-10-05T22:52:44.782Z,2.17
2022-10-05T22:57:46.498Z,2.38
2022-10-05T23:02:48.300Z,2.10
2022-10-05T23:07:50.036Z,1.67
2022-10-05T23:13:00.811Z,2.60
2022-10-05T23:18:02.897Z,3.22
2022-10-05T23:23:04.653Z,2.58
2022-10-05T23:28:06.675Z,2.35
2022-10-05T23:33:08.368Z,2.20
2022-10-05T23:38:10.058Z,2.40
2022-10-05T23:43:11.736Z,2.13
2022-10-05T23:48:13.580Z,2.40
2022-10-05T23:53:16.400Z,2.30
2022-10-05T23:58:18.876Z,2.20
